sensor_id;sensor_type;location;lat;lon;timestamp;P1;durP1;ratioP1;P2;durP2;ratioP2
1467;SDS011;727;48.892;9.544;2022-08-11T00:01:43;3.83;;;3.53;;
1467;SDS011;727;48.892;9.544;2022-08-11T00:04:11;3.80;;;3.17;;
1467;SDS011;727;48.892;9.544;2022-08-11T00:06:40;7.57;;;4.40;;
1467;SDS011;727;48.892;9.544;2022-08-11T00:09:09;4.47;;;3.57;;
1467;SDS011;727;48.892;9.544;2022-08-11T00:11:40;5.00;;;3.90;;
1467;SDS011;727;48.892;9.544;2022-08-11T00:14:12;4.47;;;4.07;;
1467;SDS011;727;48.892;9.544;2022-08-11T00:16:40;5.17;;;4.67;;
1467;SDS011;727;48.892;9.544;2022-08-11T00:19:10;5.13;;;4.57;;
1467;SDS011;727;48.892;9.544;2022-08-11T00:21:45;4.20;;;3.90;;
1467;SDS011;727;48.892;9.544;2022-08-11T00:24:12;3.77;;;3.47;;
1467;SDS011;727;48.892;9.544;2022-08-11T00:26:41;4.07;;;3.77;;
1467;SDS011;727;48.892;9.544;2022-08-11T00:29:13;4.70;;;3.53;;
1467;SDS011;727;48.892;9.544;2022-08-11T00:31:42;4.43;;;4.13;;
1467;SDS011;727;48.892;9.544;2022-08-11T00:34:10;4.10;;;3.70;;
1467;SDS011;727;48.892;9.544;2022-08-11T00:36:38;4.27;;;3.90;;
1467;SDS011;727;48.892;9.544;2022-08-11T00:39:10;4.10;;;3.80;;
1467;SDS011;727;48.892;9.544;2022-08-11T00:41:43;4.07;;;3.77;;
1467;SDS011;727;48.892;9.544;2022-08-11T00:44:19;5.60;;;4.20;;
1467;SDS011;727;48.892;9.544;2022-08-11T00:46:58;4.97;;;3.80;;
1467;SDS011;727;48.892;9.544;2022-08-11T00:49:37;4.40;;;3.90;;
1467;SDS011;727;48.892;9.544;2022-08-11T00:52:14;4.40;;;4.00;;
1467;SDS011;727;48.892;9.544;2022-08-11T00:54:57;4.80;;;4.40;;
1467;SDS011;727;48.892;9.544;2022-08-11T00:57:58;5.17;;;3.77;;
1467;SDS011;727;48.892;9.544;2022-08-11T01:00:48;4.17;;;3.77;;
1467;SDS011;727;48.892;9.544;2022-08-11T01:03:37;4.23;;;3.33;;
1467;SDS011;727;48.892;9.544;2022-08-11T01:06:32;4.03;;;3.73;;
1467;SDS011;727;48.892;9.544;2022-08-11T01:09:23;3.70;;;3.43;;
1467;SDS011;727;48.892;9.544;2022-08-11T01:12:10;4.40;;;3.63;;
1467;SDS011;727;48.892;9.544;2022-08-11T01:18:14;4.57;;;3.87;;
1467;SDS011;727;48.892;9.544;2022-08-11T01:30:31;4.23;;;3.87;;
1467;SDS011;727;48.892;9.544;2022-08-11T01:33:53;4.90;;;3.83;;
1467;SDS011;727;48.892;9.544;2022-08-11T01:36:56;7.37;;;3.90;;
1467;SDS011;727;48.892;9.544;2022-08-11T01:39:45;6.10;;;3.90;;
1467;SDS011;727;48.892;9.544;2022-08-11T01:45:54;4.17;;;3.63;;
1467;SDS011;727;48.892;9.544;2022-08-11T01:48:29;4.10;;;3.60;;
1467;SDS011;727;48.892;9.544;2022-08-11T01:51:16;10.20;;;3.70;;
1467;SDS011;727;48.892;9.544;2022-08-11T01:53:53;5.27;;;3.67;;
1467;SDS011;727;48.892;9.544;2022-08-11T01:56:32;3.67;;;2.87;;
1467;SDS011;727;48.892;9.544;2022-08-11T01:59:09;3.33;;;2.80;;
1467;SDS011;727;48.892;9.544;2022-08-11T02:01:44;3.70;;;3.40;;
1467;SDS011;727;48.892;9.544;2022-08-11T02:04:23;6.97;;;3.20;;
1467;SDS011;727;48.892;9.544;2022-08-11T02:07:00;3.60;;;3.40;;
1467;SDS011;727;48.892;9.544;2022-08-11T02:09:42;3.80;;;3.50;;
1467;SDS011;727;48.892;9.544;2022-08-11T02:12:26;3.60;;;3.30;;
1467;SDS011;727;48.892;9.544;2022-08-11T02:15:07;3.50;;;3.30;;
1467;SDS011;727;48.892;9.544;2022-08-11T02:17:49;6.43;;;3.67;;
1467;SDS011;727;48.892;9.544;2022-08-11T02:20:25;2.80;;;2.60;;
1467;SDS011;727;48.892;9.544;2022-08-11T02:23:21;4.43;;;3.83;;
1467;SDS011;727;48.892;9.544;2022-08-11T02:26:06;3.23;;;3.00;;
1467;SDS011;727;48.892;9.544;2022-08-11T02:28:41;5.37;;;3.07;;
1467;SDS011;727;48.892;9.544;2022-08-11T02:31:24;5.57;;;3.77;;
1467;SDS011;727;48.892;9.544;2022-08-11T02:34:21;3.97;;;3.40;;
1467;SDS011;727;48.892;9.544;2022-08-11T02:36:54;2.87;;;2.67;;
1467;SDS011;727;48.892;9.544;2022-08-11T02:39:27;3.90;;;3.53;;
1467;SDS011;727;48.892;9.544;2022-08-11T02:42:06;4.63;;;4.10;;
1467;SDS011;727;48.892;9.544;2022-08-11T02:44:50;4.33;;;3.53;;
1467;SDS011;727;48.892;9.544;2022-08-11T02:47:30;3.70;;;3.47;;
1467;SDS011;727;48.892;9.544;2022-08-11T02:50:08;4.17;;;3.87;;
1467;SDS011;727;48.892;9.544;2022-08-11T02:52:42;5.33;;;3.40;;
1467;SDS011;727;48.892;9.544;2022-08-11T02:55:18;3.20;;;3.00;;
1467;SDS011;727;48.892;9.544;2022-08-11T02:57:52;3.63;;;3.43;;
1467;SDS011;727;48.892;9.544;2022-08-11T03:00:24;4.70;;;4.20;;
1467;SDS011;727;48.892;9.544;2022-08-11T03:03:05;3.57;;;3.27;;
1467;SDS011;727;48.892;9.544;2022-08-11T03:05:44;4.13;;;3.83;;
1467;SDS011;727;48.892;9.544;2022-08-11T03:08:35;4.10;;;3.23;;
1467;SDS011;727;48.892;9.544;2022-08-11T03:11:18;4.57;;;3.83;;
1467;SDS011;727;48.892;9.544;2022-08-11T03:14:18;3.73;;;3.43;;
1467;SDS011;727;48.892;9.544;2022-08-11T03:17:12;6.03;;;3.97;;
1467;SDS011;727;48.892;9.544;2022-08-11T03:19:52;3.67;;;3.33;;
1467;SDS011;727;48.892;9.544;2022-08-11T03:22:29;4.07;;;3.77;;
1467;SDS011;727;48.892;9.544;2022-08-11T03:25:02;7.13;;;3.60;;
1467;SDS011;727;48.892;9.544;2022-08-11T03:30:22;3.80;;;3.53;;
1467;SDS011;727;48.892;9.544;2022-08-11T03:33:00;4.50;;;4.17;;
1467;SDS011;727;48.892;9.544;2022-08-11T03:36:02;3.30;;;3.10;;
1467;SDS011;727;48.892;9.544;2022-08-11T03:38:41;5.70;;;3.23;;
1467;SDS011;727;48.892;9.544;2022-08-11T03:41:17;4.80;;;3.70;;
1467;SDS011;727;48.892;9.544;2022-08-11T03:44:22;5.23;;;3.83;;
1467;SDS011;727;48.892;9.544;2022-08-11T03:47:05;5.70;;;3.60;;
1467;SDS011;727;48.892;9.544;2022-08-11T03:49:59;3.10;;;2.83;;
1467;SDS011;727;48.892;9.544;2022-08-11T03:52:36;5.00;;;3.60;;
1467;SDS011;727;48.892;9.544;2022-08-11T03:55:14;5.27;;;3.93;;
1467;SDS011;727;48.892;9.544;2022-08-11T03:58:08;4.67;;;3.60;;
1467;SDS011;727;48.892;9.544;2022-08-11T04:01:20;4.23;;;3.50;;
1467;SDS011;727;48.892;9.544;2022-08-11T04:13:34;5.23;;;3.50;;
1467;SDS011;727;48.892;9.544;2022-08-11T04:16:43;4.23;;;3.93;;
1467;SDS011;727;48.892;9.544;2022-08-11T04:19:21;4.70;;;3.23;;
1467;SDS011;727;48.892;9.544;2022-08-11T04:22:15;4.90;;;4.20;;
1467;SDS011;727;48.892;9.544;2022-08-11T04:28:10;3.80;;;3.50;;
1467;SDS011;727;48.892;9.544;2022-08-11T04:31:18;3.80;;;3.60;;
1467;SDS011;727;48.892;9.544;2022-08-11T04:34:01;7.40;;;4.27;;
1467;SDS011;727;48.892;9.544;2022-08-11T04:36:56;8.93;;;3.97;;
1467;SDS011;727;48.892;9.544;2022-08-11T04:40:02;4.90;;;3.77;;
1467;SDS011;727;48.892;9.544;2022-08-11T04:49:30;7.07;;;3.57;;
1467;SDS011;727;48.892;9.544;2022-08-11T04:52:45;5.27;;;3.77;;
1467;SDS011;727;48.892;9.544;2022-08-11T04:56:01;6.67;;;4.23;;
1467;SDS011;727;48.892;9.544;2022-08-11T04:59:03;4.70;;;4.30;;
1467;SDS011;727;48.892;9.544;2022-08-11T05:05:17;5.50;;;4.90;;
1467;SDS011;727;48.892;9.544;2022-08-11T05:08:12;7.40;;;4.57;;
1467;SDS011;727;48.892;9.544;2022-08-11T05:11:21;6.13;;;4.10;;
1467;SDS011;727;48.892;9.544;2022-08-11T05:14:25;5.37;;;3.63;;
1467;SDS011;727;48.892;9.544;2022-08-11T05:20:25;4.57;;;4.17;;
1467;SDS011;727;48.892;9.544;2022-08-11T05:23:10;7.77;;;4.20;;
1467;SDS011;727;48.892;9.544;2022-08-11T05:25:56;6.60;;;3.97;;
1467;SDS011;727;48.892;9.544;2022-08-11T05:28:45;5.60;;;4.00;;
1467;SDS011;727;48.892;9.544;2022-08-11T05:31:36;8.53;;;3.60;;
1467;SDS011;727;48.892;9.544;2022-08-11T05:34:22;11.30;;;5.57;;
1467;SDS011;727;48.892;9.544;2022-08-11T05:37:11;4.17;;;3.47;;
1467;SDS011;727;48.892;9.544;2022-08-11T05:39:44;3.77;;;3.47;;
1467;SDS011;727;48.892;9.544;2022-08-11T05:42:31;5.27;;;3.60;;
1467;SDS011;727;48.892;9.544;2022-08-11T05:45:17;9.13;;;4.00;;
1467;SDS011;727;48.892;9.544;2022-08-11T05:48:02;3.90;;;3.57;;
1467;SDS011;727;48.892;9.544;2022-08-11T05:50:51;3.87;;;3.57;;
1467;SDS011;727;48.892;9.544;2022-08-11T05:53:51;4.20;;;3.70;;
1467;SDS011;727;48.892;9.544;2022-08-11T05:56:41;3.50;;;3.20;;
1467;SDS011;727;48.892;9.544;2022-08-11T05:59:13;4.03;;;3.73;;
1467;SDS011;727;48.892;9.544;2022-08-11T06:01:41;7.93;;;4.93;;
1467;SDS011;727;48.892;9.544;2022-08-11T06:04:12;3.40;;;3.10;;
1467;SDS011;727;48.892;9.544;2022-08-11T06:06:47;4.30;;;3.63;;
1467;SDS011;727;48.892;9.544;2022-08-11T06:09:21;6.07;;;3.70;;
1467;SDS011;727;48.892;9.544;2022-08-11T06:11:50;5.53;;;3.77;;
1467;SDS011;727;48.892;9.544;2022-08-11T06:14:17;7.83;;;3.33;;
1467;SDS011;727;48.892;9.544;2022-08-11T06:16:46;3.90;;;3.47;;
1467;SDS011;727;48.892;9.544;2022-08-11T06:19:14;3.83;;;3.43;;
1467;SDS011;727;48.892;9.544;2022-08-11T06:21:43;4.27;;;2.80;;
1467;SDS011;727;48.892;9.544;2022-08-11T06:24:11;4.33;;;3.03;;
1467;SDS011;727;48.892;9.544;2022-08-11T06:26:41;3.60;;;3.17;;
1467;SDS011;727;48.892;9.544;2022-08-11T06:29:13;3.60;;;3.40;;
1467;SDS011;727;48.892;9.544;2022-08-11T06:31:42;3.87;;;3.50;;
1467;SDS011;727;48.892;9.544;2022-08-11T06:34:21;3.70;;;3.43;;
1467;SDS011;727;48.892;9.544;2022-08-11T06:36:56;4.77;;;3.30;;
1467;SDS011;727;48.892;9.544;2022-08-11T06:39:38;3.90;;;3.60;;
1467;SDS011;727;48.892;9.544;2022-08-11T06:42:15;5.83;;;3.30;;
1467;SDS011;727;48.892;9.544;2022-08-11T06:45:00;5.00;;;4.00;;
1467;SDS011;727;48.892;9.544;2022-08-11T06:47:32;4.03;;;3.67;;
1467;SDS011;727;48.892;9.544;2022-08-11T06:50:00;3.73;;;3.17;;
1467;SDS011;727;48.892;9.544;2022-08-11T06:52:46;6.00;;;3.73;;
1467;SDS011;727;48.892;9.544;2022-08-11T06:55:14;6.70;;;3.20;;
1467;SDS011;727;48.892;9.544;2022-08-11T06:58:07;3.80;;;3.50;;
1467;SDS011;727;48.892;9.544;2022-08-11T07:00:57;3.40;;;3.20;;
1467;SDS011;727;48.892;9.544;2022-08-11T07:03:28;2.83;;;2.63;;
1467;SDS011;727;48.892;9.544;2022-08-11T07:06:03;8.90;;;3.67;;
1467;SDS011;727;48.892;9.544;2022-08-11T07:08:59;6.70;;;3.83;;
1467;SDS011;727;48.892;9.544;2022-08-11T07:12:25;9.10;;;3.97;;
1467;SDS011;727;48.892;9.544;2022-08-11T07:15:23;4.93;;;3.60;;
1467;SDS011;727;48.892;9.544;2022-08-11T07:18:10;7.23;;;3.60;;
1467;SDS011;727;48.892;9.544;2022-08-11T07:21:05;7.33;;;3.83;;
1467;SDS011;727;48.892;9.544;2022-08-11T07:23:53;4.53;;;3.20;;
1467;SDS011;727;48.892;9.544;2022-08-11T07:26:40;3.27;;;2.97;;
1467;SDS011;727;48.892;9.544;2022-08-11T07:29:27;9.30;;;4.00;;
1467;SDS011;727;48.892;9.544;2022-08-11T07:31:59;3.80;;;3.37;;
1467;SDS011;727;48.892;9.544;2022-08-11T07:34:34;5.97;;;4.13;;
1467;SDS011;727;48.892;9.544;2022-08-11T07:37:03;8.87;;;3.17;;
1467;SDS011;727;48.892;9.544;2022-08-11T07:39:36;4.70;;;3.67;;
1467;SDS011;727;48.892;9.544;2022-08-11T07:42:05;5.07;;;3.87;;
1467;SDS011;727;48.892;9.544;2022-08-11T07:44:34;7.77;;;3.30;;
1467;SDS011;727;48.892;9.544;2022-08-11T07:47:22;3.43;;;3.13;;
1467;SDS011;727;48.892;9.544;2022-08-11T07:50:09;4.00;;;3.60;;
1467;SDS011;727;48.892;9.544;2022-08-11T07:52:54;6.23;;;3.90;;
1467;SDS011;727;48.892;9.544;2022-08-11T07:55:22;4.57;;;3.67;;
1467;SDS011;727;48.892;9.544;2022-08-11T07:57:50;6.70;;;3.60;;
1467;SDS011;727;48.892;9.544;2022-08-11T08:00:36;4.67;;;4.07;;
1467;SDS011;727;48.892;9.544;2022-08-11T08:03:23;3.50;;;3.23;;
1467;SDS011;727;48.892;9.544;2022-08-11T08:06:08;3.30;;;3.10;;
1467;SDS011;727;48.892;9.544;2022-08-11T08:08:53;5.67;;;3.53;;
1467;SDS011;727;48.892;9.544;2022-08-11T08:11:39;3.60;;;3.30;;
1467;SDS011;727;48.892;9.544;2022-08-11T08:14:24;5.10;;;3.00;;
1467;SDS011;727;48.892;9.544;2022-08-11T08:17:08;3.07;;;2.83;;
1467;SDS011;727;48.892;9.544;2022-08-11T08:19:54;3.37;;;3.00;;
1467;SDS011;727;48.892;9.544;2022-08-11T08:22:21;4.77;;;3.43;;
1467;SDS011;727;48.892;9.544;2022-08-11T08:24:48;3.27;;;2.97;;
1467;SDS011;727;48.892;9.544;2022-08-11T08:27:16;3.00;;;2.70;;
1467;SDS011;727;48.892;9.544;2022-08-11T08:29:45;4.33;;;2.80;;
1467;SDS011;727;48.892;9.544;2022-08-11T08:32:30;3.80;;;2.80;;
1467;SDS011;727;48.892;9.544;2022-08-11T08:35:00;3.10;;;2.80;;
1467;SDS011;727;48.892;9.544;2022-08-11T08:37:29;4.60;;;3.13;;
1467;SDS011;727;48.892;9.544;2022-08-11T08:39:56;3.00;;;2.70;;
1467;SDS011;727;48.892;9.544;2022-08-11T08:42:24;3.70;;;2.63;;
1467;SDS011;727;48.892;9.544;2022-08-11T08:44:55;3.30;;;3.00;;
1467;SDS011;727;48.892;9.544;2022-08-11T08:47:24;3.43;;;3.07;;
1467;SDS011;727;48.892;9.544;2022-08-11T08:49:58;3.30;;;2.57;;
1467;SDS011;727;48.892;9.544;2022-08-11T08:52:30;4.73;;;2.80;;
1467;SDS011;727;48.892;9.544;2022-08-11T08:55:03;2.87;;;2.67;;
1467;SDS011;727;48.892;9.544;2022-08-11T08:57:32;4.10;;;2.67;;
1467;SDS011;727;48.892;9.544;2022-08-11T09:00:01;5.50;;;3.00;;
1467;SDS011;727;48.892;9.544;2022-08-11T09:02:29;3.77;;;3.17;;
1467;SDS011;727;48.892;9.544;2022-08-11T09:04:56;3.20;;;2.87;;
1467;SDS011;727;48.892;9.544;2022-08-11T09:07:25;4.50;;;2.93;;
1467;SDS011;727;48.892;9.544;2022-08-11T09:09:53;4.20;;;3.17;;
1467;SDS011;727;48.892;9.544;2022-08-11T09:12:25;3.30;;;2.77;;
1467;SDS011;727;48.892;9.544;2022-08-11T09:14:53;2.97;;;2.77;;
1467;SDS011;727;48.892;9.544;2022-08-11T09:17:33;3.47;;;3.00;;
1467;SDS011;727;48.892;9.544;2022-08-11T09:20:03;3.17;;;2.30;;
1467;SDS011;727;48.892;9.544;2022-08-11T09:22:33;4.00;;;3.23;;
1467;SDS011;727;48.892;9.544;2022-08-11T09:25:19;2.60;;;2.40;;
1467;SDS011;727;48.892;9.544;2022-08-11T09:28:05;7.73;;;2.67;;
1467;SDS011;727;48.892;9.544;2022-08-11T09:30:36;2.80;;;2.60;;
1467;SDS011;727;48.892;9.544;2022-08-11T09:33:05;3.00;;;2.80;;
1467;SDS011;727;48.892;9.544;2022-08-11T09:35:33;4.30;;;3.13;;
1467;SDS011;727;48.892;9.544;2022-08-11T09:38:04;2.70;;;2.50;;
1467;SDS011;727;48.892;9.544;2022-08-11T09:40:49;3.40;;;2.70;;
1467;SDS011;727;48.892;9.544;2022-08-11T09:43:18;11.40;;;4.10;;
1467;SDS011;727;48.892;9.544;2022-08-11T09:46:02;3.37;;;3.10;;
1467;SDS011;727;48.892;9.544;2022-08-11T09:48:30;3.20;;;2.40;;
1467;SDS011;727;48.892;9.544;2022-08-11T09:51:00;3.77;;;2.50;;
1467;SDS011;727;48.892;9.544;2022-08-11T09:53:31;4.30;;;2.93;;
1467;SDS011;727;48.892;9.544;2022-08-11T09:56:01;3.43;;;2.83;;
1467;SDS011;727;48.892;9.544;2022-08-11T09:58:49;4.40;;;2.10;;
1467;SDS011;727;48.892;9.544;2022-08-11T10:01:15;6.13;;;3.10;;
1467;SDS011;727;48.892;9.544;2022-08-11T10:03:52;3.83;;;2.43;;
1467;SDS011;727;48.892;9.544;2022-08-11T10:06:23;3.33;;;3.03;;
1467;SDS011;727;48.892;9.544;2022-08-11T10:09:10;3.97;;;2.33;;
1467;SDS011;727;48.892;9.544;2022-08-11T10:11:38;2.50;;;2.30;;
1467;SDS011;727;48.892;9.544;2022-08-11T10:14:08;4.70;;;2.50;;
1467;SDS011;727;48.892;9.544;2022-08-11T10:16:53;2.63;;;2.43;;
1467;SDS011;727;48.892;9.544;2022-08-11T10:19:21;2.63;;;2.43;;
1467;SDS011;727;48.892;9.544;2022-08-11T10:21:50;2.70;;;2.07;;
1467;SDS011;727;48.892;9.544;2022-08-11T10:24:33;2.50;;;2.33;;
1467;SDS011;727;48.892;9.544;2022-08-11T10:27:18;2.50;;;2.10;;
1467;SDS011;727;48.892;9.544;2022-08-11T10:29:46;2.73;;;2.20;;
1467;SDS011;727;48.892;9.544;2022-08-11T10:32:31;2.93;;;2.50;;
1467;SDS011;727;48.892;9.544;2022-08-11T10:35:16;4.93;;;2.40;;
1467;SDS011;727;48.892;9.544;2022-08-11T10:37:45;2.63;;;2.43;;
1467;SDS011;727;48.892;9.544;2022-08-11T10:40:16;3.10;;;2.70;;
1467;SDS011;727;48.892;9.544;2022-08-11T10:42:46;5.97;;;2.43;;
1467;SDS011;727;48.892;9.544;2022-08-11T10:45:27;3.47;;;2.20;;
1467;SDS011;727;48.892;9.544;2022-08-11T10:48:13;2.63;;;2.43;;
1467;SDS011;727;48.892;9.544;2022-08-11T10:50:43;4.10;;;2.57;;
1467;SDS011;727;48.892;9.544;2022-08-11T10:53:29;3.47;;;2.30;;
1467;SDS011;727;48.892;9.544;2022-08-11T10:56:15;2.47;;;2.27;;
1467;SDS011;727;48.892;9.544;2022-08-11T10:59:00;3.43;;;2.90;;
1467;SDS011;727;48.892;9.544;2022-08-11T11:01:29;3.60;;;2.67;;
1467;SDS011;727;48.892;9.544;2022-08-11T11:03:59;2.60;;;2.40;;
1467;SDS011;727;48.892;9.544;2022-08-11T11:06:32;2.57;;;2.37;;
1467;SDS011;727;48.892;9.544;2022-08-11T11:09:10;2.40;;;2.20;;
1467;SDS011;727;48.892;9.544;2022-08-11T11:11:44;3.27;;;2.60;;
1467;SDS011;727;48.892;9.544;2022-08-11T11:14:32;2.23;;;2.03;;
1467;SDS011;727;48.892;9.544;2022-08-11T11:17:25;2.33;;;2.20;;
1467;SDS011;727;48.892;9.544;2022-08-11T11:20:11;9.33;;;2.43;;
1467;SDS011;727;48.892;9.544;2022-08-11T11:22:42;3.00;;;2.20;;
1467;SDS011;727;48.892;9.544;2022-08-11T11:25:26;2.97;;;2.57;;
1467;SDS011;727;48.892;9.544;2022-08-11T11:31:05;3.30;;;2.10;;
1467;SDS011;727;48.892;9.544;2022-08-11T11:33:48;2.57;;;1.90;;
1467;SDS011;727;48.892;9.544;2022-08-11T11:36:26;8.13;;;2.93;;
1467;SDS011;727;48.892;9.544;2022-08-11T11:39:00;3.47;;;2.03;;
1467;SDS011;727;48.892;9.544;2022-08-11T11:41:27;2.30;;;2.20;;
1467;SDS011;727;48.892;9.544;2022-08-11T11:43:55;6.70;;;2.20;;
1467;SDS011;727;48.892;9.544;2022-08-11T11:46:24;2.20;;;2.10;;
1467;SDS011;727;48.892;9.544;2022-08-11T11:48:52;3.10;;;2.37;;
1467;SDS011;727;48.892;9.544;2022-08-11T11:51:20;2.17;;;2.07;;
1467;SDS011;727;48.892;9.544;2022-08-11T11:53:48;3.47;;;2.17;;
1467;SDS011;727;48.892;9.544;2022-08-11T11:56:16;3.40;;;2.17;;
1467;SDS011;727;48.892;9.544;2022-08-11T11:58:43;1.63;;;1.53;;
1467;SDS011;727;48.892;9.544;2022-08-11T12:01:31;2.17;;;1.97;;
1467;SDS011;727;48.892;9.544;2022-08-11T12:03:58;1.83;;;1.73;;
1467;SDS011;727;48.892;9.544;2022-08-11T12:06:30;1.70;;;1.60;;
1467;SDS011;727;48.892;9.544;2022-08-11T12:08:57;3.30;;;1.90;;
1467;SDS011;727;48.892;9.544;2022-08-11T12:11:25;2.10;;;1.63;;
1467;SDS011;727;48.892;9.544;2022-08-11T12:14:10;4.50;;;2.50;;
1467;SDS011;727;48.892;9.544;2022-08-11T12:16:40;2.73;;;2.30;;
1467;SDS011;727;48.892;9.544;2022-08-11T12:19:10;6.83;;;2.20;;
1467;SDS011;727;48.892;9.544;2022-08-11T12:21:38;2.77;;;2.20;;
1467;SDS011;727;48.892;9.544;2022-08-11T12:24:28;5.00;;;2.67;;
1467;SDS011;727;48.892;9.544;2022-08-11T12:27:13;2.40;;;2.20;;
1467;SDS011;727;48.892;9.544;2022-08-11T12:29:47;4.40;;;2.50;;
1467;SDS011;727;48.892;9.544;2022-08-11T12:32:17;3.00;;;2.30;;
1467;SDS011;727;48.892;9.544;2022-08-11T12:34:45;2.63;;;2.20;;
1467;SDS011;727;48.892;9.544;2022-08-11T12:37:12;2.10;;;1.87;;
1467;SDS011;727;48.892;9.544;2022-08-11T12:39:42;6.50;;;1.57;;
1467;SDS011;727;48.892;9.544;2022-08-11T12:42:29;3.60;;;1.83;;
1467;SDS011;727;48.892;9.544;2022-08-11T12:45:28;2.40;;;2.20;;
1467;SDS011;727;48.892;9.544;2022-08-11T12:48:07;2.20;;;2.00;;
1467;SDS011;727;48.892;9.544;2022-08-11T12:50:57;1.90;;;1.80;;
1467;SDS011;727;48.892;9.544;2022-08-11T12:53:50;1.97;;;1.87;;
1467;SDS011;727;48.892;9.544;2022-08-11T12:56:20;2.83;;;1.83;;
1467;SDS011;727;48.892;9.544;2022-08-11T12:59:06;4.40;;;1.90;;
1467;SDS011;727;48.892;9.544;2022-08-11T13:01:51;4.20;;;2.30;;
1467;SDS011;727;48.892;9.544;2022-08-11T13:04:37;4.23;;;2.13;;
1467;SDS011;727;48.892;9.544;2022-08-11T13:07:20;3.30;;;2.10;;
1467;SDS011;727;48.892;9.544;2022-08-11T13:09:47;2.80;;;1.63;;
1467;SDS011;727;48.892;9.544;2022-08-11T13:12:17;3.60;;;2.30;;
1467;SDS011;727;48.892;9.544;2022-08-11T13:15:06;2.27;;;2.00;;
1467;SDS011;727;48.892;9.544;2022-08-11T13:17:35;2.37;;;1.67;;
1467;SDS011;727;48.892;9.544;2022-08-11T13:20:12;1.80;;;1.70;;
1467;SDS011;727;48.892;9.544;2022-08-11T13:22:44;1.90;;;1.80;;
1467;SDS011;727;48.892;9.544;2022-08-11T13:25:14;1.87;;;1.77;;
1467;SDS011;727;48.892;9.544;2022-08-11T13:27:43;2.40;;;2.23;;
1467;SDS011;727;48.892;9.544;2022-08-11T13:30:22;1.90;;;1.80;;
1467;SDS011;727;48.892;9.544;2022-08-11T13:33:09;2.93;;;1.60;;
1467;SDS011;727;48.892;9.544;2022-08-11T13:35:39;1.97;;;1.87;;
1467;SDS011;727;48.892;9.544;2022-08-11T13:38:09;2.40;;;1.70;;
1467;SDS011;727;48.892;9.544;2022-08-11T13:40:40;1.67;;;1.57;;
1467;SDS011;727;48.892;9.544;2022-08-11T13:43:08;10.03;;;2.20;;
1467;SDS011;727;48.892;9.544;2022-08-11T13:45:35;1.97;;;1.87;;
1467;SDS011;727;48.892;9.544;2022-08-11T13:48:05;2.20;;;2.10;;
1467;SDS011;727;48.892;9.544;2022-08-11T13:50:34;2.10;;;1.43;;
1467;SDS011;727;48.892;9.544;2022-08-11T13:53:20;3.10;;;2.13;;
1467;SDS011;727;48.892;9.544;2022-08-11T13:55:49;1.70;;;1.60;;
1467;SDS011;727;48.892;9.544;2022-08-11T13:58:16;2.50;;;2.30;;
1467;SDS011;727;48.892;9.544;2022-08-11T14:00:44;1.93;;;1.83;;
1467;SDS011;727;48.892;9.544;2022-08-11T14:03:15;4.03;;;1.80;;
1467;SDS011;727;48.892;9.544;2022-08-11T14:05:53;2.07;;;1.83;;
1467;SDS011;727;48.892;9.544;2022-08-11T14:08:25;6.63;;;2.30;;
1467;SDS011;727;48.892;9.544;2022-08-11T14:10:57;2.13;;;2.03;;
1467;SDS011;727;48.892;9.544;2022-08-11T14:13:45;2.30;;;1.90;;
1467;SDS011;727;48.892;9.544;2022-08-11T14:16:15;2.37;;;2.10;;
1467;SDS011;727;48.892;9.544;2022-08-11T14:18:45;2.30;;;2.03;;
1467;SDS011;727;48.892;9.544;2022-08-11T14:21:15;2.23;;;2.03;;
1467;SDS011;727;48.892;9.544;2022-08-11T14:24:02;2.13;;;1.53;;
1467;SDS011;727;48.892;9.544;2022-08-11T14:26:29;3.20;;;2.00;;
1467;SDS011;727;48.892;9.544;2022-08-11T14:29:04;3.67;;;1.90;;
1467;SDS011;727;48.892;9.544;2022-08-11T14:31:34;3.37;;;1.90;;
1467;SDS011;727;48.892;9.544;2022-08-11T14:34:04;2.23;;;2.00;;
1467;SDS011;727;48.892;9.544;2022-08-11T14:36:33;2.13;;;1.77;;
1467;SDS011;727;48.892;9.544;2022-08-11T14:39:05;2.37;;;2.27;;
1467;SDS011;727;48.892;9.544;2022-08-11T14:41:37;4.27;;;1.97;;
1467;SDS011;727;48.892;9.544;2022-08-11T14:44:23;3.40;;;2.23;;
1467;SDS011;727;48.892;9.544;2022-08-11T14:47:09;3.10;;;2.30;;
1467;SDS011;727;48.892;9.544;2022-08-11T14:49:39;3.43;;;2.07;;
1467;SDS011;727;48.892;9.544;2022-08-11T14:52:08;15.97;;;2.10;;
1467;SDS011;727;48.892;9.544;2022-08-11T14:54:37;2.77;;;2.17;;
1467;SDS011;727;48.892;9.544;2022-08-11T14:57:24;2.50;;;2.30;;
1467;SDS011;727;48.892;9.544;2022-08-11T14:59:52;2.13;;;1.90;;
1467;SDS011;727;48.892;9.544;2022-08-11T15:02:22;2.70;;;2.00;;
1467;SDS011;727;48.892;9.544;2022-08-11T15:05:07;2.33;;;2.13;;
1467;SDS011;727;48.892;9.544;2022-08-11T15:07:34;2.77;;;2.20;;
1467;SDS011;727;48.892;9.544;2022-08-11T15:10:04;1.97;;;1.70;;
1467;SDS011;727;48.892;9.544;2022-08-11T15:12:33;1.77;;;1.67;;
1467;SDS011;727;48.892;9.544;2022-08-11T15:15:01;6.07;;;2.47;;
1467;SDS011;727;48.892;9.544;2022-08-11T15:17:47;2.20;;;2.00;;
1467;SDS011;727;48.892;9.544;2022-08-11T15:20:17;3.40;;;2.00;;
1467;SDS011;727;48.892;9.544;2022-08-11T15:23:07;5.13;;;1.93;;
1467;SDS011;727;48.892;9.544;2022-08-11T15:25:56;2.37;;;1.70;;
1467;SDS011;727;48.892;9.544;2022-08-11T15:28:26;2.50;;;2.30;;
1467;SDS011;727;48.892;9.544;2022-08-11T15:31:12;2.30;;;2.10;;
1467;SDS011;727;48.892;9.544;2022-08-11T15:34:01;1.80;;;1.47;;
1467;SDS011;727;48.892;9.544;2022-08-11T15:36:48;2.10;;;2.00;;
1467;SDS011;727;48.892;9.544;2022-08-11T15:39:34;1.70;;;1.60;;
1467;SDS011;727;48.892;9.544;2022-08-11T15:42:26;3.30;;;2.00;;
1467;SDS011;727;48.892;9.544;2022-08-11T15:45:12;2.20;;;2.00;;
1467;SDS011;727;48.892;9.544;2022-08-11T15:48:08;2.77;;;2.10;;
1467;SDS011;727;48.892;9.544;2022-08-11T15:50:40;2.50;;;2.30;;
1467;SDS011;727;48.892;9.544;2022-08-11T15:53:15;3.37;;;2.40;;
1467;SDS011;727;48.892;9.544;2022-08-11T15:55:45;2.10;;;1.57;;
1467;SDS011;727;48.892;9.544;2022-08-11T15:58:16;3.13;;;2.37;;
1467;SDS011;727;48.892;9.544;2022-08-11T16:01:02;2.37;;;1.77;;
1467;SDS011;727;48.892;9.544;2022-08-11T16:03:54;2.40;;;2.13;;
1467;SDS011;727;48.892;9.544;2022-08-11T16:06:39;2.37;;;2.10;;
1467;SDS011;727;48.892;9.544;2022-08-11T16:09:10;3.40;;;2.67;;
1467;SDS011;727;48.892;9.544;2022-08-11T16:11:46;3.17;;;2.40;;
1467;SDS011;727;48.892;9.544;2022-08-11T16:14:16;2.60;;;2.40;;
1467;SDS011;727;48.892;9.544;2022-08-11T16:17:02;2.83;;;2.07;;
1467;SDS011;727;48.892;9.544;2022-08-11T16:19:31;2.03;;;1.83;;
1467;SDS011;727;48.892;9.544;2022-08-11T16:22:00;3.60;;;2.10;;
1467;SDS011;727;48.892;9.544;2022-08-11T16:24:31;2.80;;;2.37;;
1467;SDS011;727;48.892;9.544;2022-08-11T16:27:00;2.77;;;2.53;;
1467;SDS011;727;48.892;9.544;2022-08-11T16:29:30;3.00;;;2.07;;
1467;SDS011;727;48.892;9.544;2022-08-11T16:32:01;4.37;;;2.07;;
1467;SDS011;727;48.892;9.544;2022-08-11T16:34:44;2.93;;;2.03;;
1467;SDS011;727;48.892;9.544;2022-08-11T16:37:32;3.17;;;2.50;;
1467;SDS011;727;48.892;9.544;2022-08-11T16:40:18;2.60;;;2.23;;
1467;SDS011;727;48.892;9.544;2022-08-11T16:42:47;2.30;;;1.77;;
1467;SDS011;727;48.892;9.544;2022-08-11T16:45:34;2.10;;;1.90;;
1467;SDS011;727;48.892;9.544;2022-08-11T16:48:20;5.20;;;1.83;;
1467;SDS011;727;48.892;9.544;2022-08-11T16:50:52;4.03;;;2.43;;
1467;SDS011;727;48.892;9.544;2022-08-11T16:53:19;3.90;;;2.10;;
1467;SDS011;727;48.892;9.544;2022-08-11T16:55:46;2.97;;;2.20;;
1467;SDS011;727;48.892;9.544;2022-08-11T16:58:14;3.83;;;2.40;;
1467;SDS011;727;48.892;9.544;2022-08-11T17:01:00;2.03;;;1.80;;
1467;SDS011;727;48.892;9.544;2022-08-11T17:03:28;9.77;;;2.77;;
1467;SDS011;727;48.892;9.544;2022-08-11T17:06:13;2.20;;;2.10;;
1467;SDS011;727;48.892;9.544;2022-08-11T17:08:58;2.10;;;1.90;;
1467;SDS011;727;48.892;9.544;2022-08-11T17:11:48;2.63;;;1.90;;
1467;SDS011;727;48.892;9.544;2022-08-11T17:14:38;4.40;;;3.00;;
1467;SDS011;727;48.892;9.544;2022-08-11T17:17:10;2.07;;;1.87;;
1467;SDS011;727;48.892;9.544;2022-08-11T17:19:41;2.33;;;2.23;;
1467;SDS011;727;48.892;9.544;2022-08-11T17:22:12;2.80;;;2.50;;
1467;SDS011;727;48.892;9.544;2022-08-11T17:25:08;2.67;;;2.47;;
1467;SDS011;727;48.892;9.544;2022-08-11T17:27:36;4.47;;;2.30;;
1467;SDS011;727;48.892;9.544;2022-08-11T17:30:04;3.50;;;2.30;;